LTBALTFD

Guest
Details From LTBA - Istanbul Ataturk
To LTFD - BALIKESIR KORFEZ
Flight Number -
Tags generated
Created
Modified
Stats Distance 119 nm / 220 km
Max Altitude 4,200 ft / 1,280 m
Waypoints 3
Social Downloads 1
Likes 0
Share VATSIM

Download

Looking for another format? Having issues loading an existing format? Contact us
Advertisement - Login to hide

Notes

Basic altitude profile: - Ascent Rate: 2500ft/min - Ascent Speed: 210kts - Cruise Altitude: 25000ft - Cruise Speed: 420kts - Descent Rate: 1000ft/min - Descent Speed: 190kts Options: - Use NATs: yes - Use PACOTS: yes - Use low airways: yes - Use high airways: yes

Route

LTBA KONEN LTFD

ID Type Via Altitude Latitude Longitude Leg Dist Tot Dist Heading (true) Name
O LTBA APT - 0 ft / 0 m 40.97914˚ 28.81283˚ - 0 nm - Istanbul Ataturk
KONEN FIX - 4,200 ft / 1,280 m 39.81167˚ 27.27722˚ 99 nm 99 nm 226° / 225° -
O LTFD APT - 0 ft / 0 m 39.55449˚ 27.01393˚ 19 nm 118 nm 218° / 218° BALIKESIR KORFEZ

Altitude Profile

Advertisement - Login to hide

LTBA

Details ICAO LTBA (IST)
Name Istanbul Ataturk
Region Turkey
Timezone Europe/Istanbul (UTC+3.0)
Stats Elevation 163 ft / 50 m (AMSL)
Location 40.979136° 28.812832°
Runways 3
Magnetic Variation 5.472° E

METAR

LTBA 211320Z 04014KT 360V070 CAVOK 24/13 Q1016 NOSIG RMK RWY17L 05017KT 010V070 RWY05 04015KT 360V060 RWY23 05015KT

Decode

TAF

Not found

Departure Runways

ID Width Length Bearing (true) Bearing (mag) Surface Threshold Offset Overrun Length
05 197 ft / 60 m 8,514 ft / 2,595 m 58.64° 53.17° Concrete 400 ft / 122 m 197 ft / 60 m
17L 148 ft / 45 m 9,820 ft / 2,993 m 178.48° 173.01° Concrete 0 ft / 0 m 197 ft / 60 m
17R 148 ft / 45 m 9,858 ft / 3,005 m 178.49° 173.02° Concrete 0 ft / 0 m 0 ft / 0 m
23 197 ft / 60 m 8,514 ft / 2,595 m 238.65° 233.18° Concrete 0 ft / 0 m 197 ft / 60 m
35L 148 ft / 45 m 9,858 ft / 3,005 m 358.49° 353.02° Concrete 0 ft / 0 m 200 ft / 61 m
35R 148 ft / 45 m 9,820 ft / 2,993 m 358.48° 353.01° Concrete 0 ft / 0 m 197 ft / 60 m

LTFD

Details ICAO LTFD (EDO)
Name BALIKESIR KORFEZ
Region Turkey
Timezone Europe/Istanbul (UTC+3.0)
Stats Elevation 50 ft / 15 m (AMSL)
Location 39.554492° 27.013927°
Runways 1
Magnetic Variation 5.073° E

METAR

LTFD 211250Z 05015KT 9999 FEW035 30/15 Q1012

Decode

TAF

Not found

Destination Runways

ID Width Length Bearing (true) Bearing (mag) Surface Threshold Offset Overrun Length
05 98 ft / 30 m 6,830 ft / 2,082 m 53.62° 48.55° Concrete 0 ft / 0 m 191 ft / 58 m
23 98 ft / 30 m 6,830 ft / 2,082 m 233.63° 228.56° Concrete 984 ft / 300 m 191 ft / 58 m

Popular Alternatives